Time;durP1;ratioP1;P1;durP2;ratioP2;P2;SDS_P1;SDS_P2;PMS_P1;PMS_P2;Temp;Humidity;BMP_temperature;BMP_pressure;BME280_temperature;BME280_humidity;BME280_pressure;Samples;Min_cycle;Max_cycle;Signal;HPM_P1;HPM_P2
2021/10/28 00:13:23;;;;;;;9.90;7.55;;;;;;;;;;5097469;28;20070;-72
2021/10/28 00:15:57;;;;;;;11.05;7.80;;;;;;;;;;5102788;28;20038;-73
2021/10/28 00:18:45;;;;;;;12.80;7.90;;;;;;;;;;5099907;28;20024;-72
2021/10/28 00:21:12;;;;;;;11.82;7.65;;;;;;;;;;5101778;28;20032;-71
2021/10/28 00:23:44;;;;;;;11.60;8.10;;;;;;;;;;5103012;28;20019;-71
2021/10/28 00:26:11;;;;;;;11.23;7.55;;;;;;;;;;5098128;28;20056;-71
2021/10/28 00:28:37;;;;;;;17.67;7.57;;;;;;;;;;5105027;28;20115;-72
2021/10/28 00:31:04;;;;;;;12.77;7.68;;;;;;;;;;5097782;28;20024;-71
2021/10/28 00:33:31;;;;;;;11.93;8.00;;;;;;;;;;5099615;28;20051;-71
2021/10/28 00:35:58;;;;;;;11.55;7.50;;;;;;;;;;5102520;28;20017;-71
2021/10/28 00:38:24;;;;;;;9.85;8.35;;;;;;;;;;5101794;28;20023;-71
2021/10/28 00:40:51;;;;;;;16.08;7.85;;;;;;;;;;5102695;28;20095;-71
2021/10/28 00:43:18;;;;;;;8.95;7.32;;;;;;;;;;5104479;28;20032;-71
2021/10/28 00:45:44;;;;;;;14.80;7.43;;;;;;;;;;5102895;28;20030;-73
2021/10/28 00:48:12;;;;;;;13.82;7.28;;;;;;;;;;5098831;28;20369;-71
2021/10/28 00:50:38;;;;;;;10.40;7.55;;;;;;;;;;5103153;28;20063;-71
2021/10/28 00:53:06;;;;;;;10.98;7.40;;;;;;;;;;5103193;28;20032;-71
2021/10/28 00:55:32;;;;;;;11.93;7.50;;;;;;;;;;5100756;28;20424;-71
2021/10/28 00:57:58;;;;;;;14.50;7.80;;;;;;;;;;5104805;28;20471;-72
2021/10/28 01:00:24;;;;;;;13.75;7.63;;;;;;;;;;5099857;28;20024;-71
2021/10/28 01:02:51;;;;;;;12.13;7.95;;;;;;;;;;5099617;28;20031;-71
2021/10/28 01:05:17;;;;;;;13.55;7.75;;;;;;;;;;5101601;28;20106;-71
2021/10/28 01:07:44;;;;;;;12.52;7.85;;;;;;;;;;5102160;28;20059;-71
2021/10/28 01:10:10;;;;;;;11.98;7.85;;;;;;;;;;5101275;28;20091;-71
2021/10/28 01:12:36;;;;;;;11.55;8.75;;;;;;;;;;5097173;28;20024;-71
2021/10/28 01:15:11;;;;;;;16.42;8.35;;;;;;;;;;5100237;28;20020;-71
2021/10/28 01:17:37;;;;;;;9.88;7.85;;;;;;;;;;5100543;28;20487;-71
2021/10/28 01:20:04;;;;;;;13.23;7.57;;;;;;;;;;5097579;28;20032;-71
2021/10/28 01:22:30;;;;;;;14.75;7.45;;;;;;;;;;5100601;28;20100;-71
2021/10/28 01:24:57;;;;;;;10.93;7.38;;;;;;;;;;5102144;27;20016;-71
2021/10/28 01:27:23;;;;;;;14.63;8.80;;;;;;;;;;5107483;27;20020;-71
2021/10/28 01:29:49;;;;;;;11.13;7.57;;;;;;;;;;5099102;28;20016;-71
2021/10/28 01:32:15;;;;;;;10.60;7.80;;;;;;;;;;5098401;28;20024;-71
2021/10/28 01:34:42;;;;;;;15.25;8.25;;;;;;;;;;5098070;28;20028;-71
2021/10/28 01:37:10;;;;;;;11.13;7.07;;;;;;;;;;5099074;28;20019;-72
2021/10/28 01:39:36;;;;;;;11.73;7.25;;;;;;;;;;5100114;28;20038;-71
2021/10/28 01:42:02;;;;;;;13.35;6.97;;;;;;;;;;5096847;28;20031;-71
2021/10/28 01:44:29;;;;;;;12.57;7.80;;;;;;;;;;5097698;28;20023;-71
2021/10/28 01:46:55;;;;;;;9.77;7.38;;;;;;;;;;5095568;28;20028;-71
2021/10/28 01:49:25;;;;;;;11.88;7.22;;;;;;;;;;5095568;28;20071;-71
2021/10/28 01:51:53;;;;;;;13.98;7.10;;;;;;;;;;5098486;28;20376;-72
2021/10/28 01:54:19;;;;;;;11.93;8.20;;;;;;;;;;5095682;28;20027;-72
2021/10/28 01:56:46;;;;;;;9.93;7.28;;;;;;;;;;5099092;28;20016;-71
2021/10/28 01:59:12;;;;;;;12.02;7.00;;;;;;;;;;5099457;28;20041;-72
2021/10/28 02:01:39;;;;;;;9.43;6.90;;;;;;;;;;5098647;28;20085;-71
2021/10/28 02:04:05;;;;;;;14.20;8.02;;;;;;;;;;5101197;28;20051;-71
2021/10/28 02:06:31;;;;;;;9.55;7.07;;;;;;;;;;5096004;28;20123;-72
2021/10/28 02:08:58;;;;;;;14.10;7.72;;;;;;;;;;5095988;28;20032;-71
2021/10/28 02:11:24;;;;;;;15.20;7.47;;;;;;;;;;5099352;28;20411;-72
2021/10/28 02:13:50;;;;;;;15.32;8.90;;;;;;;;;;5098421;28;20475;-72
2021/10/28 02:16:16;;;;;;;11.88;7.82;;;;;;;;;;5097591;28;20410;-71
2021/10/28 02:18:43;;;;;;;11.98;7.68;;;;;;;;;;5098123;28;20045;-71
2021/10/28 02:21:09;;;;;;;13.48;7.88;;;;;;;;;;5094723;28;20464;-71
2021/10/28 02:23:35;;;;;;;13.70;8.00;;;;;;;;;;5096954;28;20253;-71
2021/10/28 02:26:01;;;;;;;11.10;8.10;;;;;;;;;;5102489;28;20551;-71
2021/10/28 02:28:27;;;;;;;12.68;7.80;;;;;;;;;;5097984;28;20056;-71
2021/10/28 02:30:53;;;;;;;15.48;8.55;;;;;;;;;;5095901;28;20028;-71
2021/10/28 02:33:19;;;;;;;12.80;8.13;;;;;;;;;;5097196;28;20022;-71
2021/10/28 02:35:46;;;;;;;12.30;8.40;;;;;;;;;;5095135;28;20425;-71
2021/10/28 02:38:12;;;;;;;13.73;8.38;;;;;;;;;;5098869;28;20046;-71
2021/10/28 02:40:38;;;;;;;13.02;7.55;;;;;;;;;;5098584;28;20092;-72
2021/10/28 02:43:04;;;;;;;13.52;7.93;;;;;;;;;;5094794;28;20054;-71
2021/10/28 02:45:30;;;;;;;14.27;8.80;;;;;;;;;;5097666;28;20049;-71
2021/10/28 02:47:56;;;;;;;12.80;7.57;;;;;;;;;;5098381;28;20024;-72
2021/10/28 02:50:23;;;;;;;12.38;7.90;;;;;;;;;;5097908;28;20024;-71
2021/10/28 02:52:49;;;;;;;11.38;7.93;;;;;;;;;;5092431;28;20024;-71
2021/10/28 02:55:15;;;;;;;11.38;8.20;;;;;;;;;;5089134;28;20031;-71
2021/10/28 02:57:42;;;;;;;13.27;8.30;;;;;;;;;;5095940;28;20031;-72
2021/10/28 03:00:09;;;;;;;14.02;7.53;;;;;;;;;;5093571;28;20037;-71
2021/10/28 03:02:36;;;;;;;11.50;7.47;;;;;;;;;;5090713;28;20088;-71
2021/10/28 03:05:02;;;;;;;10.95;7.40;;;;;;;;;;5090121;28;20031;-71
2021/10/28 03:07:28;;;;;;;19.95;8.20;;;;;;;;;;5082048;28;20040;-72
2021/10/28 03:09:54;;;;;;;16.20;7.55;;;;;;;;;;5091203;28;20032;-71
2021/10/28 03:12:20;;;;;;;10.23;7.45;;;;;;;;;;5090617;28;20107;-71
2021/10/28 03:14:54;;;;;;;10.57;7.30;;;;;;;;;;5090090;28;20034;-71
2021/10/28 03:25:32;;;;;;;11.40;6.88;;;;;;;;;;5087411;28;20028;-71
2021/10/28 03:25:40;;;;;;;13.00;6.72;;;;;;;;;;5088965;28;20445;-71
2021/10/28 03:28:13;;;;;;;14.77;7.53;;;;;;;;;;5088772;28;20069;-71
2021/10/28 03:30:40;;;;;;;8.77;7.30;;;;;;;;;;5087597;28;20388;-71
2021/10/28 03:33:08;;;;;;;12.93;7.35;;;;;;;;;;5091828;28;20038;-71
2021/10/28 03:35:34;;;;;;;18.42;7.10;;;;;;;;;;5090566;28;20028;-71
2021/10/28 03:38:09;;;;;;;10.52;7.10;;;;;;;;;;5087240;28;20042;-72
2021/10/28 04:21:08;;;;;;;10.57;7.45;;;;;;;;;;5099553;28;20023;-71
2021/10/28 04:29:12;;;;;;;10.38;7.68;;;;;;;;;;5096451;28;20046;-73
2021/10/28 04:31:39;;;;;;;16.38;7.95;;;;;;;;;;5095195;28;20279;-72
2021/10/28 04:34:06;;;;;;;13.43;8.77;;;;;;;;;;5096614;28;20304;-71
2021/10/28 04:36:33;;;;;;;11.18;7.70;;;;;;;;;;5098759;28;20043;-71
2021/10/28 04:39:00;;;;;;;10.82;7.45;;;;;;;;;;5085959;28;20302;-71
2021/10/28 04:41:27;;;;;;;16.05;7.78;;;;;;;;;;5090710;28;20038;-71
2021/10/28 04:43:53;;;;;;;12.05;7.65;;;;;;;;;;5093885;28;20192;-74
2021/10/28 04:46:20;;;;;;;8.77;7.35;;;;;;;;;;5092057;28;20521;-71
2021/10/28 04:48:46;;;;;;;9.75;6.38;;;;;;;;;;5083272;28;20044;-71
2021/10/28 04:51:13;;;;;;;12.00;7.15;;;;;;;;;;5088364;28;20265;-71
2021/10/28 04:53:39;;;;;;;11.30;7.13;;;;;;;;;;5087047;28;20028;-72
2021/10/28 04:56:05;;;;;;;12.90;6.90;;;;;;;;;;5091241;28;20642;-71
2021/10/28 04:58:31;;;;;;;12.60;6.38;;;;;;;;;;5087182;28;20040;-71
2021/10/28 05:00:58;;;;;;;10.30;6.57;;;;;;;;;;5091699;28;20391;-71
2021/10/28 05:03:24;;;;;;;10.82;7.18;;;;;;;;;;5093708;28;20269;-71
2021/10/28 05:05:50;;;;;;;8.82;6.60;;;;;;;;;;5091049;28;20032;-72
2021/10/28 05:08:16;;;;;;;16.23;7.72;;;;;;;;;;5096768;27;20410;-71
2021/10/28 05:10:43;;;;;;;8.88;7.50;;;;;;;;;;5094096;28;20026;-71
2021/10/28 05:13:13;;;;;;;12.10;6.60;;;;;;;;;;5087389;28;20031;-70
2021/10/28 05:15:57;;;;;;;9.43;6.60;;;;;;;;;;5095753;28;20185;-71
2021/10/28 05:18:25;;;;;;;11.60;7.75;;;;;;;;;;5094997;28;20123;-71
2021/10/28 05:20:52;;;;;;;10.63;6.43;;;;;;;;;;5091849;28;20576;-71
2021/10/28 05:23:18;;;;;;;13.00;7.38;;;;;;;;;;5091451;28;20024;-71
2021/10/28 05:25:47;;;;;;;14.23;8.10;;;;;;;;;;5092616;28;20024;-71
2021/10/28 05:28:13;;;;;;;11.23;7.13;;;;;;;;;;5091131;28;20031;-71
2021/10/28 05:30:39;;;;;;;13.70;8.15;;;;;;;;;;5095760;28;20026;-71
2021/10/28 05:33:05;;;;;;;10.00;7.60;;;;;;;;;;5090368;28;20038;-71
2021/10/28 05:35:32;;;;;;;13.32;7.80;;;;;;;;;;5095402;28;20130;-72
2021/10/28 05:37:58;;;;;;;12.80;7.55;;;;;;;;;;5094454;28;20035;-72
2021/10/28 05:40:24;;;;;;;13.50;7.97;;;;;;;;;;5090582;28;20568;-71
2021/10/28 05:42:52;;;;;;;11.65;8.15;;;;;;;;;;5099618;28;20482;-71
2021/10/28 05:45:20;;;;;;;10.98;8.90;;;;;;;;;;5092065;28;20016;-71
2021/10/28 05:47:46;;;;;;;13.02;8.65;;;;;;;;;;5091266;28;20395;-71
2021/10/28 05:50:15;;;;;;;11.63;8.05;;;;;;;;;;5091308;28;20084;-71
2021/10/28 05:52:43;;;;;;;13.63;7.97;;;;;;;;;;5093730;28;20450;-71
2021/10/28 05:55:10;;;;;;;13.45;7.97;;;;;;;;;;5090393;28;20039;-71
2021/10/28 05:57:37;;;;;;;14.15;8.38;;;;;;;;;;5092057;28;20039;-71
2021/10/28 06:00:05;;;;;;;12.75;7.50;;;;;;;;;;5094877;28;20024;-71
2021/10/28 06:02:31;;;;;;;10.35;7.00;;;;;;;;;;5090905;28;20504;-71
2021/10/28 06:04:57;;;;;;;11.00;6.72;;;;;;;;;;5093370;28;20590;-71
2021/10/28 06:07:23;;;;;;;13.07;8.38;;;;;;;;;;5092544;28;20067;-71
2021/10/28 06:09:50;;;;;;;11.18;7.05;;;;;;;;;;5095022;28;20099;-71
2021/10/28 06:12:16;;;;;;;8.82;6.20;;;;;;;;;;5090822;28;20027;-71
2021/10/28 06:14:43;;;;;;;14.82;7.30;;;;;;;;;;5090205;28;20082;-71
2021/10/28 06:17:12;;;;;;;13.93;6.85;;;;;;;;;;5091152;28;20476;-71
2021/10/28 06:19:38;;;;;;;9.40;7.90;;;;;;;;;;5094976;28;20062;-71
2021/10/28 06:22:05;;;;;;;15.48;9.40;;;;;;;;;;5093569;28;20402;-71
2021/10/28 06:24:31;;;;;;;19.20;10.52;;;;;;;;;;5090776;28;20020;-70
2021/10/28 06:26:57;;;;;;;17.60;10.52;;;;;;;;;;5091206;28;20550;-71
2021/10/28 06:29:24;;;;;;;15.45;10.77;;;;;;;;;;5093898;28;20093;-70
2021/10/28 06:31:50;;;;;;;13.95;9.52;;;;;;;;;;5089561;28;20028;-70
2021/10/28 06:34:27;;;;;;;14.27;9.88;;;;;;;;;;5093388;28;20028;-70
2021/10/28 06:36:55;;;;;;;17.35;10.95;;;;;;;;;;5093467;28;20022;-71
2021/10/28 06:39:21;;;;;;;14.82;10.82;;;;;;;;;;5089142;28;20613;-70
2021/10/28 06:41:48;;;;;;;15.48;9.75;;;;;;;;;;5093542;28;20062;-71
2021/10/28 06:44:14;;;;;;;13.52;9.93;;;;;;;;;;5090393;28;20043;-71
2021/10/28 06:46:40;;;;;;;15.02;10.48;;;;;;;;;;5092228;28;20032;-70
2021/10/28 06:49:06;;;;;;;27.65;10.10;;;;;;;;;;5090959;28;20056;-70
2021/10/28 06:51:39;;;;;;;22.15;9.85;;;;;;;;;;5094980;28;20554;-70
2021/10/28 06:54:53;;;;;;;14.77;11.18;;;;;;;;;;5094569;28;20084;-71
2021/10/28 07:04:52;;;;;;;16.73;9.05;;;;;;;;;;5094644;28;20074;-71
2021/10/28 07:07:20;;;;;;;9.85;8.77;;;;;;;;;;5102691;28;20476;-71
2021/10/28 07:09:58;;;;;;;13.65;8.50;;;;;;;;;;5098246;28;20024;-71
2021/10/28 07:14:59;;;;;;;12.23;8.52;;;;;;;;;;5093688;28;20509;-71
2021/10/28 07:17:44;;;;;;;14.48;8.38;;;;;;;;;;5096902;28;20711;-71
2021/10/28 07:20:21;;;;;;;12.10;9.00;;;;;;;;;;5094875;28;20076;-71
2021/10/28 07:23:11;;;;;;;14.25;8.95;;;;;;;;;;5102694;28;20024;-71
2021/10/28 07:55:18;;;;;;;13.27;8.85;;;;;;;;;;5101273;28;20049;-76
2021/10/28 08:22:33;;;;;;;14.63;7.65;;;;;;;;;;5091167;28;20027;-72
2021/10/28 08:30:15;;;;;;;13.60;6.97;;;;;;;;;;5091868;28;20035;-71
2021/10/28 08:32:41;;;;;;;11.98;6.63;;;;;;;;;;5095504;28;20023;-72
2021/10/28 08:35:08;;;;;;;14.35;6.05;;;;;;;;;;5092668;28;20031;-70
2021/10/28 08:37:41;;;;;;;12.35;5.22;;;;;;;;;;5091660;28;20058;-71
2021/10/28 08:40:09;;;;;;;10.43;5.90;;;;;;;;;;5096355;28;20361;-71
2021/10/28 08:42:37;;;;;;;7.32;5.13;;;;;;;;;;5096678;28;20059;-71
2021/10/28 08:45:03;;;;;;;10.93;5.40;;;;;;;;;;5092338;28;20113;-71
2021/10/28 08:47:30;;;;;;;7.78;6.05;;;;;;;;;;5094156;28;20423;-71
2021/10/28 08:50:00;;;;;;;7.60;5.13;;;;;;;;;;5094392;28;20046;-71
2021/10/28 08:55:24;;;;;;;12.60;5.88;;;;;;;;;;5089782;28;20566;-71
2021/10/28 09:24:25;;;;;;;15.10;8.27;;;;;;;;;;5091431;28;20049;-70
2021/10/28 09:26:58;;;;;;;16.60;8.02;;;;;;;;;;5091174;28;20019;-71
2021/10/28 09:32:09;;;;;;;12.05;7.00;;;;;;;;;;5091320;28;20408;-71
2021/10/28 09:35:00;;;;;;;14.65;7.00;;;;;;;;;;5095151;28;20053;-70
2021/10/28 09:49:51;;;;;;;10.38;6.40;;;;;;;;;;5063909;28;20052;-71
2021/10/28 09:51:45;;;;;;;22.02;7.00;;;;;;;;;;5089344;28;20244;-71
2021/10/28 09:59:28;;;;;;;12.60;7.38;;;;;;;;;;5093385;28;20115;-71
2021/10/28 10:02:12;;;;;;;13.65;8.73;;;;;;;;;;5087976;28;20020;-70
2021/10/28 10:04:41;;;;;;;11.73;7.28;;;;;;;;;;5091560;28;20055;-72
2021/10/28 10:07:09;;;;;;;10.25;6.63;;;;;;;;;;5096178;28;20036;-71
2021/10/28 10:09:37;;;;;;;11.43;6.10;;;;;;;;;;5094179;28;20123;-70
2021/10/28 10:12:03;;;;;;;11.73;6.00;;;;;;;;;;5093813;28;20026;-70
2021/10/28 10:14:30;;;;;;;8.32;6.18;;;;;;;;;;5090034;28;20020;-70
2021/10/28 10:16:56;;;;;;;10.93;6.18;;;;;;;;;;5091663;28;20020;-71
2021/10/28 10:19:33;;;;;;;12.25;6.45;;;;;;;;;;5091832;28;20054;-71
2021/10/28 10:22:05;;;;;;;10.05;6.45;;;;;;;;;;5098550;28;20097;-72
2021/10/28 11:26:35;;;;;;;11.52;6.40;;;;;;;;;;5091543;28;20089;-71
2021/10/28 12:43:48;;;;;;;7.00;4.80;;;;;;;;;;5095977;28;20039;-71
2021/10/28 12:46:25;;;;;;;6.85;4.15;;;;;;;;;;5091271;28;20100;-70
2021/10/28 13:48:02;;;;;;;10.55;5.90;;;;;;;;;;5091993;28;20035;-70
2021/10/28 13:49:54;;;;;;;7.85;5.32;;;;;;;;;;5090304;28;20414;-71
2021/10/28 13:55:11;;;;;;;9.32;5.07;;;;;;;;;;5093955;28;20035;-71
2021/10/28 15:29:48;;;;;;;10.90;6.88;;;;;;;;;;5091172;28;20043;-72
2021/10/28 15:48:32;;;;;;;13.88;7.63;;;;;;;;;;5096941;28;20066;-71
2021/10/28 15:51:48;;;;;;;12.68;8.43;;;;;;;;;;5094061;28;20043;-71
2021/10/28 16:23:55;;;;;;;14.20;7.35;;;;;;;;;;5091265;28;20115;-74
2021/10/28 16:26:22;;;;;;;11.52;7.15;;;;;;;;;;5095461;28;20039;-71
2021/10/28 16:28:48;;;;;;;13.52;7.07;;;;;;;;;;5095818;27;20020;-73
2021/10/28 16:31:16;;;;;;;10.75;7.25;;;;;;;;;;5093364;28;20123;-71
2021/10/28 16:33:42;;;;;;;8.32;7.03;;;;;;;;;;5096608;28;20089;-72
2021/10/28 16:36:08;;;;;;;9.82;7.30;;;;;;;;;;5097186;28;20027;-71
2021/10/28 16:38:35;;;;;;;9.93;7.32;;;;;;;;;;5097750;28;20024;-71
2021/10/28 16:41:01;;;;;;;8.32;6.80;;;;;;;;;;5096404;28;20076;-71
2021/10/28 16:43:27;;;;;;;10.00;6.60;;;;;;;;;;5102192;28;20471;-71
2021/10/28 16:45:53;;;;;;;8.95;6.45;;;;;;;;;;5097941;28;20798;-72
2021/10/28 16:48:20;;;;;;;9.40;6.80;;;;;;;;;;5101094;28;20671;-72
2021/10/28 16:50:46;;;;;;;12.52;7.25;;;;;;;;;;5099037;27;20034;-72
2021/10/28 16:53:12;;;;;;;12.00;6.85;;;;;;;;;;5096585;28;20023;-70
2021/10/28 16:55:40;;;;;;;9.02;6.93;;;;;;;;;;5098802;28;20031;-71
2021/10/28 16:58:09;;;;;;;12.35;7.18;;;;;;;;;;5092425;28;20031;-71
2021/10/28 17:00:35;;;;;;;7.93;7.07;;;;;;;;;;5101217;27;20029;-72
2021/10/28 17:03:02;;;;;;;16.55;7.63;;;;;;;;;;5091906;28;20107;-72
2021/10/28 17:05:29;;;;;;;11.52;6.85;;;;;;;;;;5093023;28;20073;-71
2021/10/28 17:07:55;;;;;;;12.13;7.15;;;;;;;;;;5093112;28;20622;-71
2021/10/28 17:10:21;;;;;;;12.63;7.07;;;;;;;;;;5091849;28;20104;-71
2021/10/28 17:12:48;;;;;;;12.15;6.82;;;;;;;;;;5094976;27;20024;-73
2021/10/28 17:15:15;;;;;;;9.55;6.88;;;;;;;;;;5091012;28;20026;-72
2021/10/28 17:17:41;;;;;;;8.18;6.63;;;;;;;;;;5092154;28;20019;-71
2021/10/28 17:20:08;;;;;;;10.57;6.70;;;;;;;;;;5095139;28;20583;-71
2021/10/28 17:22:35;;;;;;;10.50;7.68;;;;;;;;;;5095678;28;20054;-72
2021/10/28 17:25:04;;;;;;;11.02;6.75;;;;;;;;;;5095009;28;20517;-71
2021/10/28 17:27:30;;;;;;;10.75;6.35;;;;;;;;;;5091009;28;20163;-70
2021/10/28 17:29:57;;;;;;;9.65;6.72;;;;;;;;;;5097314;28;20038;-71
2021/10/28 17:32:24;;;;;;;10.15;6.93;;;;;;;;;;5093328;28;20020;-71
2021/10/28 17:34:51;;;;;;;11.98;7.00;;;;;;;;;;5093639;28;20073;-72
2021/10/28 17:37:17;;;;;;;9.50;6.78;;;;;;;;;;5094894;27;20050;-71
2021/10/28 17:39:43;;;;;;;11.23;6.85;;;;;;;;;;5101079;28;20099;-71
2021/10/28 17:42:09;;;;;;;12.43;6.97;;;;;;;;;;5092772;28;20024;-72
2021/10/28 17:44:38;;;;;;;7.60;6.70;;;;;;;;;;5091808;28;20043;-71
2021/10/28 17:47:05;;;;;;;14.77;7.80;;;;;;;;;;5092179;28;20043;-70
2021/10/28 17:49:31;;;;;;;10.65;7.05;;;;;;;;;;5091459;28;20039;-71
2021/10/28 17:51:58;;;;;;;14.43;6.88;;;;;;;;;;5097438;28;20082;-70
2021/10/28 17:54:25;;;;;;;10.57;7.10;;;;;;;;;;5091801;28;20575;-71
2021/10/28 17:56:51;;;;;;;10.30;6.85;;;;;;;;;;5095314;28;20138;-71
2021/10/28 17:59:18;;;;;;;11.80;7.50;;;;;;;;;;5091795;28;20024;-71
2021/10/28 18:01:44;;;;;;;13.13;7.88;;;;;;;;;;5088037;28;20020;-71
2021/10/28 18:04:11;;;;;;;9.30;6.80;;;;;;;;;;5092360;28;20039;-70
2021/10/28 18:06:37;;;;;;;10.60;7.40;;;;;;;;;;5094712;28;20429;-71
2021/10/28 18:09:05;;;;;;;11.60;7.88;;;;;;;;;;5090788;28;20566;-70
2021/10/28 18:11:31;;;;;;;12.60;7.32;;;;;;;;;;5095458;28;20032;-70
2021/10/28 18:13:59;;;;;;;9.88;7.15;;;;;;;;;;5092411;28;20028;-70
2021/10/28 18:16:26;;;;;;;8.85;7.13;;;;;;;;;;5090453;28;20103;-72
2021/10/28 18:18:52;;;;;;;9.95;7.55;;;;;;;;;;5092813;28;20023;-73
2021/10/28 18:21:19;;;;;;;10.85;6.70;;;;;;;;;;5090034;28;20476;-72
2021/10/28 18:23:49;;;;;;;10.55;6.68;;;;;;;;;;5092287;28;20034;-71
2021/10/28 18:26:16;;;;;;;10.73;7.97;;;;;;;;;;5092294;28;20459;-74
2021/10/28 18:28:42;;;;;;;12.32;7.65;;;;;;;;;;5089165;28;20063;-72
2021/10/28 18:31:08;;;;;;;12.32;8.23;;;;;;;;;;5095394;28;20024;-73
2021/10/28 18:33:35;;;;;;;10.77;7.43;;;;;;;;;;5091694;28;20116;-73
2021/10/28 18:36:02;;;;;;;8.68;7.60;;;;;;;;;;5088617;28;20115;-72
2021/10/28 18:38:30;;;;;;;10.88;7.20;;;;;;;;;;5091719;28;20028;-72
2021/10/28 18:40:56;;;;;;;10.45;7.80;;;;;;;;;;5092171;28;20055;-72
2021/10/28 18:43:23;;;;;;;12.50;8.48;;;;;;;;;;5091924;28;20024;-71
2021/10/28 18:45:49;;;;;;;9.52;7.30;;;;;;;;;;5090765;28;20016;-71
2021/10/28 18:48:15;;;;;;;12.93;7.22;;;;;;;;;;5092778;28;20067;-71
2021/10/28 18:50:42;;;;;;;9.45;7.50;;;;;;;;;;5093317;28;20079;-72
2021/10/28 18:53:09;;;;;;;10.70;7.80;;;;;;;;;;5089875;28;20030;-71
2021/10/28 18:55:36;;;;;;;12.05;7.07;;;;;;;;;;5100218;27;20038;-70
2021/10/28 18:58:03;;;;;;;14.48;8.05;;;;;;;;;;5094006;28;20216;-73
2021/10/28 19:00:29;;;;;;;12.25;7.63;;;;;;;;;;5093365;28;20054;-71
2021/10/28 19:02:57;;;;;;;11.95;7.55;;;;;;;;;;5086386;28;20108;-71
2021/10/28 19:05:23;;;;;;;13.60;7.80;;;;;;;;;;5089082;28;20023;-72
2021/10/28 19:07:49;;;;;;;12.18;8.07;;;;;;;;;;5088381;28;20388;-72
2021/10/28 19:10:16;;;;;;;10.80;7.95;;;;;;;;;;5087078;28;20036;-72
2021/10/28 19:12:43;;;;;;;9.57;8.15;;;;;;;;;;5096558;28;20069;-73
2021/10/28 19:15:09;;;;;;;11.35;8.00;;;;;;;;;;5094304;27;20168;-71
2021/10/28 19:17:35;;;;;;;10.80;8.02;;;;;;;;;;5096525;28;20544;-72
2021/10/28 19:20:03;;;;;;;12.90;8.25;;;;;;;;;;5096615;28;20047;-72
2021/10/28 19:22:31;;;;;;;14.10;7.72;;;;;;;;;;5095274;28;20123;-71
2021/10/28 19:25:01;;;;;;;13.35;8.30;;;;;;;;;;5095928;27;20032;-71
2021/10/28 19:27:27;;;;;;;10.50;8.32;;;;;;;;;;5092286;28;20028;-71
2021/10/28 19:29:58;;;;;;;13.77;8.45;;;;;;;;;;5096691;28;20420;-71
2021/10/28 19:32:25;;;;;;;14.57;8.57;;;;;;;;;;5093837;28;20028;-71
2021/10/28 19:34:53;;;;;;;11.23;8.02;;;;;;;;;;5095666;28;20325;-71
2021/10/28 19:37:34;;;;;;;14.70;8.77;;;;;;;;;;5094649;27;20522;-71
2021/10/28 19:45:16;;;;;;;10.75;8.25;;;;;;;;;;5093564;28;20028;-71
2021/10/28 19:47:43;;;;;;;8.32;7.40;;;;;;;;;;5093030;27;20471;-71
2021/10/28 19:50:13;;;;;;;9.02;8.05;;;;;;;;;;5093308;28;20058;-71
2021/10/28 19:52:39;;;;;;;12.85;7.60;;;;;;;;;;5096018;28;20646;-71
2021/10/28 19:55:06;;;;;;;13.65;8.57;;;;;;;;;;5092412;28;20157;-72
2021/10/28 19:57:36;;;;;;;11.82;8.50;;;;;;;;;;5094046;28;20034;-71
2021/10/28 20:05:31;;;;;;;14.68;8.73;;;;;;;;;;5098448;27;20553;-72
2021/10/28 20:08:10;;;;;;;16.85;8.90;;;;;;;;;;5096026;27;20031;-73
2021/10/28 20:21:27;;;;;;;12.27;8.00;;;;;;;;;;5096510;27;20051;-71
2021/10/28 20:23:53;;;;;;;12.45;8.35;;;;;;;;;;5092510;28;20092;-71
2021/10/28 20:26:20;;;;;;;11.57;8.52;;;;;;;;;;5095264;28;20023;-71
2021/10/28 20:28:50;;;;;;;11.25;8.40;;;;;;;;;;5092565;27;20039;-70
2021/10/28 20:31:19;;;;;;;9.75;7.47;;;;;;;;;;5090385;28;20024;-71
2021/10/28 20:34:04;;;;;;;12.23;7.97;;;;;;;;;;5088962;28;20142;-71
2021/10/28 20:38:58;;;;;;;15.18;8.43;;;;;;;;;;5089210;27;20047;-72
2021/10/28 20:41:25;;;;;;;13.55;8.65;;;;;;;;;;5093125;28;20049;-72
2021/10/28 20:43:52;;;;;;;16.38;9.00;;;;;;;;;;5091548;28;20474;-71
2021/10/28 20:46:21;;;;;;;17.38;9.43;;;;;;;;;;5094325;27;20020;-71
2021/10/28 20:48:48;;;;;;;12.88;8.80;;;;;;;;;;5095559;28;20040;-72
2021/10/28 20:51:14;;;;;;;13.85;8.68;;;;;;;;;;5090318;28;20024;-74
2021/10/28 20:53:41;;;;;;;15.32;8.52;;;;;;;;;;5091601;28;20063;-71
2021/10/28 20:56:07;;;;;;;15.77;9.35;;;;;;;;;;5091730;28;20027;-72
2021/10/28 20:58:33;;;;;;;13.38;9.02;;;;;;;;;;5099235;27;20813;-73
2021/10/28 21:00:59;;;;;;;10.48;8.02;;;;;;;;;;5094333;28;20026;-73
2021/10/28 21:03:26;;;;;;;12.75;9.25;;;;;;;;;;5097150;27;20024;-71
2021/10/28 21:05:52;;;;;;;17.42;9.70;;;;;;;;;;5096435;27;20016;-72
2021/10/28 21:08:18;;;;;;;12.23;8.15;;;;;;;;;;5097317;28;20618;-72
2021/10/28 21:10:45;;;;;;;11.95;8.48;;;;;;;;;;5098460;28;20464;-71
2021/10/28 21:13:12;;;;;;;13.43;8.55;;;;;;;;;;5090866;28;20510;-71
2021/10/28 21:15:38;;;;;;;10.35;8.30;;;;;;;;;;5092839;28;20337;-72
2021/10/28 21:18:06;;;;;;;11.82;8.05;;;;;;;;;;5088298;28;20027;-71
2021/10/28 21:20:32;;;;;;;13.70;8.77;;;;;;;;;;5093105;28;20071;-72
2021/10/28 21:23:00;;;;;;;11.48;8.93;;;;;;;;;;5085647;28;20023;-72
2021/10/28 21:25:26;;;;;;;18.23;9.02;;;;;;;;;;5088255;28;20028;-70
2021/10/28 21:27:52;;;;;;;15.15;8.55;;;;;;;;;;5089869;28;20556;-72
2021/10/28 21:30:19;;;;;;;13.77;8.57;;;;;;;;;;5093899;28;20024;-71
2021/10/28 21:32:46;;;;;;;15.63;8.38;;;;;;;;;;5093364;28;20020;-71
2021/10/28 21:35:12;;;;;;;11.88;8.98;;;;;;;;;;5091241;28;20717;-71
2021/10/28 21:37:39;;;;;;;12.68;8.80;;;;;;;;;;5089511;28;20032;-71
2021/10/28 21:40:06;;;;;;;11.30;8.88;;;;;;;;;;5091818;28;20095;-71
2021/10/28 21:42:33;;;;;;;13.98;8.43;;;;;;;;;;5087516;28;20107;-72
2021/10/28 21:44:59;;;;;;;11.85;8.35;;;;;;;;;;5095684;28;20018;-71
2021/10/28 21:47:26;;;;;;;16.27;8.63;;;;;;;;;;5097450;27;20110;-72
2021/10/28 21:49:55;;;;;;;16.90;9.20;;;;;;;;;;5093364;28;20137;-71
2021/10/28 21:52:33;;;;;;;18.48;8.43;;;;;;;;;;5091589;28;20028;-71
2021/10/28 22:26:35;;;;;;;14.00;8.43;;;;;;;;;;5087371;28;20161;-72
2021/10/28 22:29:01;;;;;;;10.23;7.72;;;;;;;;;;5086542;28;20044;-71
2021/10/28 22:31:27;;;;;;;11.07;8.38;;;;;;;;;;5082831;28;20085;-72
2021/10/28 22:33:54;;;;;;;12.82;8.27;;;;;;;;;;5090913;28;20334;-71
2021/10/28 22:36:27;;;;;;;9.73;8.23;;;;;;;;;;5088291;28;20027;-71
2021/10/28 22:39:02;;;;;;;11.50;8.13;;;;;;;;;;5085839;28;20036;-71
2021/10/28 22:41:29;;;;;;;12.90;7.82;;;;;;;;;;5085628;28;20387;-71
2021/10/28 22:43:56;;;;;;;11.35;7.95;;;;;;;;;;5089227;28;20261;-72
2021/10/28 22:46:22;;;;;;;14.93;7.82;;;;;;;;;;5086241;28;20027;-71
2021/10/28 22:48:48;;;;;;;13.57;7.88;;;;;;;;;;5088705;28;20205;-71
2021/10/28 22:51:14;;;;;;;13.27;7.93;;;;;;;;;;5086001;28;20074;-72
2021/10/28 22:53:41;;;;;;;12.77;7.72;;;;;;;;;;5089070;28;20085;-71
2021/10/28 22:56:10;;;;;;;11.43;8.52;;;;;;;;;;5091359;28;20024;-72
2021/10/28 22:58:40;;;;;;;11.50;8.25;;;;;;;;;;5090026;28;20063;-71
2021/10/28 23:14:32;;;;;;;;;;;;;;;;;;5090531;28;20483;-71
2021/10/28 23:20:36;;;;;;;13.13;8.48;;;;;;;;;;5087986;28;19908;-71
2021/10/28 23:20:47;;;;;;;11.80;7.97;;;;;;;;;;5091429;28;20045;-71
2021/10/28 23:22:39;;;;;;;11.90;8.27;;;;;;;;;;5086057;28;20032;-71
2021/10/28 23:25:06;;;;;;;15.27;9.52;;;;;;;;;;5102405;28;20031;-71
2021/10/28 23:27:32;;;;;;;11.25;8.45;;;;;;;;;;5100314;28;20024;-71
2021/10/28 23:29:58;;;;;;;9.75;8.32;;;;;;;;;;5102328;28;20062;-71
2021/10/28 23:32:24;;;;;;;14.27;8.40;;;;;;;;;;5101329;28;20483;-70
2021/10/28 23:34:50;;;;;;;13.80;8.18;;;;;;;;;;5102363;28;20036;-71
2021/10/28 23:37:17;;;;;;;11.95;9.32;;;;;;;;;;5100712;28;20028;-70
2021/10/28 23:39:43;;;;;;;15.73;8.50;;;;;;;;;;5102234;28;20035;-72
2021/10/28 23:42:09;;;;;;;13.75;9.02;;;;;;;;;;5102259;28;20024;-72
2021/10/28 23:44:35;;;;;;;10.65;8.75;;;;;;;;;;5101683;28;20106;-72
2021/10/28 23:47:01;;;;;;;10.43;8.20;;;;;;;;;;5102283;28;20038;-72
2021/10/28 23:49:27;;;;;;;9.90;8.40;;;;;;;;;;5098200;28;20044;-71
2021/10/28 23:51:54;;;;;;;11.05;8.30;;;;;;;;;;5080503;28;20034;-73
2021/10/28 23:54:20;;;;;;;12.00;8.77;;;;;;;;;;5092859;28;20178;-72
2021/10/28 23:56:46;;;;;;;12.38;8.48;;;;;;;;;;5103104;28;20023;-72
2021/10/28 23:59:12;;;;;;;10.57;8.23;;;;;;;;;;5089233;28;20031;-76
